createdAt,value
2022-10-14T00:01:16.022Z,40.08
2022-10-14T00:03:43.788Z,38.08
2022-10-14T00:06:17.093Z,39.28
2022-10-14T00:08:44.664Z,38.92
2022-10-14T00:11:34.246Z,38.95
2022-10-14T00:14:04.736Z,37.47
2022-10-14T00:16:34.968Z,37.72
2022-10-14T00:19:02.214Z,38.95
2022-10-14T00:21:29.983Z,37.30
2022-10-14T00:23:57.261Z,38.40
2022-10-14T00:26:28.883Z,36.88
2022-10-14T00:28:56.985Z,35.83
2022-10-14T00:31:27.409Z,35.67
2022-10-14T00:33:54.915Z,35.33
2022-10-14T00:36:24.327Z,35.58
2022-10-14T00:38:52.325Z,35.53
2022-10-14T00:41:26.532Z,35.88
2022-10-14T00:44:08.550Z,36.47
2022-10-14T00:46:38.441Z,35.30
2022-10-14T00:49:14.971Z,35.55
2022-10-14T00:51:48.595Z,35.63
2022-10-14T00:54:20.966Z,36.95
2022-10-14T00:56:50.599Z,35.15
2022-10-14T00:59:18.040Z,36.83
2022-10-14T01:01:45.250Z,34.75
2022-10-14T01:04:12.547Z,36.17
2022-10-14T01:06:51.918Z,35.58
2022-10-14T01:09:32.803Z,36.25
2022-10-14T01:12:28.691Z,36.80
2022-10-14T01:15:11.569Z,36.25
2022-10-14T01:17:41.523Z,34.78
2022-10-14T01:20:29.935Z,35.53
2022-10-14T01:23:33.559Z,35.47
2022-10-14T01:26:31.487Z,35.45
2022-10-14T01:28:58.772Z,33.30
2022-10-14T01:31:32.586Z,34.10
2022-10-14T01:34:03.163Z,35.35
2022-10-14T01:36:42.214Z,36.17
2022-10-14T01:39:23.557Z,35.42
2022-10-14T01:42:20.325Z,33.75
2022-10-14T01:44:54.931Z,34.22
2022-10-14T01:47:24.495Z,34.58
2022-10-14T01:49:59.362Z,33.70
2022-10-14T01:52:32.918Z,35.08
2022-10-14T01:55:04.048Z,34.60
2022-10-14T01:57:35.494Z,34.22
2022-10-14T02:00:04.547Z,34.15
2022-10-14T02:02:41.370Z,33.28
2022-10-14T02:05:26.710Z,34.15
2022-10-14T02:07:59.955Z,33.28
2022-10-14T02:10:51.508Z,33.55
2022-10-14T02:13:34.424Z,34.67
2022-10-14T02:16:16.429Z,33.25
2022-10-14T02:18:58.669Z,33.72
2022-10-14T02:21:42.931Z,32.67
2022-10-14T02:24:24.581Z,33.55
2022-10-14T02:26:54.793Z,33.88
2022-10-14T02:29:24.361Z,33.58
2022-10-14T02:31:54.666Z,33.20
2022-10-14T02:34:23.139Z,34.22
2022-10-14T02:36:50.704Z,32.90
2022-10-14T02:39:24.684Z,34.83
2022-10-14T02:41:51.605Z,34.97
2022-10-14T02:44:18.803Z,35.25
2022-10-14T02:46:46.728Z,34.35
2022-10-14T02:49:14.062Z,34.53
2022-10-14T02:51:43.884Z,34.22
2022-10-14T02:54:12.076Z,33.13
2022-10-14T02:56:39.128Z,33.45
2022-10-14T02:59:06.251Z,33.83
2022-10-14T03:01:37.349Z,32.58
2022-10-14T03:04:06.236Z,33.97
2022-10-14T03:06:33.366Z,34.45
2022-10-14T03:09:01.079Z,33.15
2022-10-14T03:11:30.490Z,33.13
2022-10-14T03:14:03.447Z,32.03
2022-10-14T03:16:30.395Z,32.58
2022-10-14T03:18:58.647Z,32.10
2022-10-14T03:21:39.906Z,33.67
2022-10-14T03:24:13.260Z,34.45
2022-10-14T03:26:41.373Z,33.58
2022-10-14T03:29:08.377Z,36.55
2022-10-14T03:31:50.779Z,33.40
2022-10-14T03:34:41.015Z,34.47
2022-10-14T03:37:14.746Z,34.70
2022-10-14T03:39:47.932Z,33.85
2022-10-14T03:42:16.566Z,35.38
2022-10-14T03:44:47.283Z,34.97
2022-10-14T03:47:18.328Z,37.22
2022-10-14T03:49:45.943Z,34.63
2022-10-14T03:52:21.079Z,35.67
2022-10-14T03:54:59.342Z,36.47
2022-10-14T03:57:27.384Z,35.58
2022-10-14T03:59:57.253Z,35.03
2022-10-14T04:02:32.246Z,33.80
2022-10-14T04:05:01.106Z,34.03
2022-10-14T04:07:29.020Z,33.22
2022-10-14T04:09:57.897Z,33.95
2022-10-14T04:12:25.321Z,35.58
2022-10-14T04:15:08.526Z,33.17
2022-10-14T04:17:49.292Z,34.17
2022-10-14T04:20:17.224Z,34.35
2022-10-14T04:22:44.946Z,33.83
2022-10-14T04:25:14.519Z,34.30
2022-10-14T04:27:41.458Z,34.67
2022-10-14T04:30:10.946Z,35.13
2022-10-14T04:32:49.363Z,35.67
2022-10-14T04:35:17.607Z,35.72
2022-10-14T04:37:48.367Z,37.47
2022-10-14T04:40:25.718Z,37.05
2022-10-14T04:42:58.739Z,38.88
2022-10-14T04:45:35.648Z,38.42
2022-10-14T04:48:03.895Z,38.97
2022-10-14T04:50:35.285Z,40.42
2022-10-14T04:53:23.317Z,38.25
2022-10-14T04:56:08.762Z,38.38
2022-10-14T04:58:41.488Z,38.67
2022-10-14T05:01:09.131Z,38.25
2022-10-14T05:03:39.940Z,38.38
2022-10-14T05:06:06.974Z,37.13
2022-10-14T05:08:38.695Z,39.80
2022-10-14T05:11:08.514Z,39.10
2022-10-14T05:13:52.539Z,39.30
2022-10-14T05:16:19.458Z,40.83
2022-10-14T05:18:46.377Z,42.03
2022-10-14T05:21:14.180Z,42.30
2022-10-14T05:23:59.827Z,43.28
2022-10-14T05:26:29.920Z,42.03
2022-10-14T05:28:59.967Z,41.88
2022-10-14T05:31:28.759Z,43.08
2022-10-14T05:34:05.223Z,44.47
2022-10-14T05:36:32.483Z,43.17
2022-10-14T05:39:01.061Z,43.78
2022-10-14T05:41:33.995Z,44.83
2022-10-14T05:44:02.323Z,45.85
2022-10-14T05:46:30.009Z,46.50
2022-10-14T05:48:57.744Z,46.78
2022-10-14T05:51:25.243Z,50.50
2022-10-14T05:53:59.365Z,47.80
2022-10-14T05:56:26.617Z,50.03
2022-10-14T05:58:54.960Z,48.40
2022-10-14T06:01:25.312Z,42.95
2022-10-14T06:03:53.067Z,44.47
2022-10-14T06:06:20.170Z,48.28
2022-10-14T06:08:47.281Z,47.92
2022-10-14T06:11:14.488Z,48.33
2022-10-14T06:13:42.151Z,46.92
2022-10-14T06:16:11.082Z,49.17
2022-10-14T06:18:38.869Z,47.90
2022-10-14T06:21:07.228Z,46.80
2022-10-14T06:23:34.201Z,46.97
2022-10-14T06:26:04.989Z,48.45
2022-10-14T06:28:32.208Z,47.88
2022-10-14T06:30:59.106Z,47.13
2022-10-14T06:33:28.372Z,48.65
2022-10-14T06:35:56.329Z,47.83
2022-10-14T06:38:23.592Z,48.85
2022-10-14T06:40:52.170Z,48.13
2022-10-14T06:43:20.069Z,47.83
2022-10-14T06:45:48.239Z,48.88
2022-10-14T06:48:15.567Z,49.58
2022-10-14T06:50:43.055Z,48.85
2022-10-14T06:53:10.115Z,50.70
2022-10-14T06:55:36.995Z,51.72
2022-10-14T06:58:03.942Z,50.47
2022-10-14T07:00:30.808Z,51.00
2022-10-14T07:02:59.478Z,53.85
2022-10-14T07:05:27.099Z,53.28
2022-10-14T07:07:54.323Z,53.78
2022-10-14T07:10:21.287Z,51.65
2022-10-14T07:12:48.563Z,52.28
2022-10-14T07:15:15.500Z,51.45
2022-10-14T07:17:42.531Z,53.95
2022-10-14T07:20:10.120Z,52.08
2022-10-14T07:22:38.889Z,53.08
2022-10-14T07:25:06.901Z,51.70
2022-10-14T07:27:34.117Z,51.55
2022-10-14T07:30:01.807Z,50.58
2022-10-14T07:32:28.916Z,50.75
2022-10-14T07:34:55.832Z,49.85
2022-10-14T07:37:23.236Z,51.65
2022-10-14T07:39:50.656Z,51.00
2022-10-14T07:42:17.788Z,50.97
2022-10-14T07:44:45.971Z,52.08
2022-10-14T07:47:13.225Z,50.25
2022-10-14T07:49:40.407Z,49.85
2022-10-14T07:52:07.623Z,49.90
2022-10-14T07:54:34.636Z,49.03
2022-10-14T07:57:01.684Z,49.28
2022-10-14T07:59:28.602Z,48.22
2022-10-14T08:01:56.834Z,45.83
2022-10-14T08:04:25.222Z,47.60
2022-10-14T08:06:52.828Z,47.20
2022-10-14T08:09:19.975Z,45.67
2022-10-14T08:11:47.456Z,46.38
2022-10-14T08:14:14.941Z,47.78
2022-10-14T08:16:41.850Z,46.78
2022-10-14T08:19:14.689Z,45.85
2022-10-14T08:21:43.187Z,46.20
2022-10-14T08:24:10.985Z,45.72
2022-10-14T08:26:50.244Z,46.22
2022-10-14T08:29:18.629Z,46.22
2022-10-14T08:31:46.510Z,46.78
2022-10-14T08:34:13.601Z,47.72
2022-10-14T08:36:41.003Z,48.10
2022-10-14T08:42:16.265Z,47.92
2022-10-14T08:44:55.807Z,48.20
2022-10-14T08:47:29.747Z,46.03
2022-10-14T08:50:25.466Z,49.45
2022-10-14T08:53:15.262Z,47.83
2022-10-14T08:55:49.660Z,51.75
2022-10-14T08:58:35.534Z,48.78
2022-10-14T09:01:23.624Z,46.90
2022-10-14T09:03:59.839Z,47.90
2022-10-14T09:06:29.527Z,46.58
2022-10-14T09:09:09.748Z,46.38
2022-10-14T09:11:43.679Z,47.40
2022-10-14T09:14:18.015Z,48.50
2022-10-14T09:16:50.458Z,46.55
2022-10-14T09:19:36.889Z,46.67
2022-10-14T09:22:13.037Z,47.63
2022-10-14T09:24:42.133Z,46.10
2022-10-14T09:27:17.947Z,45.78
2022-10-14T09:29:50.671Z,43.72
2022-10-14T09:32:40.443Z,42.55
2022-10-14T09:35:35.503Z,51.33
2022-10-14T09:38:02.732Z,42.83
2022-10-14T09:40:35.607Z,44.53
2022-10-14T09:43:08.265Z,41.38
2022-10-14T09:45:54.037Z,41.85
2022-10-14T09:48:37.501Z,39.97
2022-10-14T09:51:09.363Z,39.35
2022-10-14T09:53:45.369Z,39.58
2022-10-14T09:56:12.963Z,41.05
2022-10-14T09:58:53.949Z,40.60
2022-10-14T10:01:29.680Z,43.60
2022-10-14T10:03:57.093Z,41.38
2022-10-14T10:06:26.649Z,40.15
2022-10-14T10:08:53.485Z,41.42
2022-10-14T10:11:35.667Z,43.60
2022-10-14T10:14:25.090Z,39.10
2022-10-14T10:17:20.500Z,39.42
2022-10-14T10:19:52.357Z,36.20
2022-10-14T10:22:26.590Z,34.47
2022-10-14T10:25:03.502Z,32.58
2022-10-14T10:27:36.298Z,34.95
2022-10-14T10:30:18.071Z,37.63
2022-10-14T10:32:50.560Z,37.10
2022-10-14T10:35:28.186Z,36.95
2022-10-14T10:38:32.241Z,35.53
2022-10-14T10:41:15.224Z,33.60
2022-10-14T10:44:09.601Z,30.50
2022-10-14T10:46:36.523Z,28.13
2022-10-14T10:49:31.044Z,27.83
2022-10-14T10:52:36.703Z,27.55
2022-10-14T10:55:18.526Z,29.02
2022-10-14T10:58:06.151Z,29.88
2022-10-14T11:00:49.751Z,28.67
2022-10-14T11:03:47.992Z,28.08
2022-10-14T11:06:47.186Z,26.52
2022-10-14T11:09:57.552Z,26.50
2022-10-14T11:12:38.734Z,24.25
2022-10-14T11:15:14.288Z,24.67
2022-10-14T11:18:22.896Z,25.00
2022-10-14T11:21:10.861Z,24.63
2022-10-14T11:23:50.225Z,23.95
2022-10-14T11:26:42.979Z,22.70
2022-10-14T11:29:31.397Z,22.70
2022-10-14T11:32:23.548Z,23.52
2022-10-14T11:34:53.979Z,23.35
2022-10-14T11:37:26.530Z,24.10
2022-10-14T11:40:00.479Z,23.33
2022-10-14T11:42:50.916Z,22.15
2022-10-14T11:45:56.249Z,23.52
2022-10-14T11:48:34.155Z,22.70
2022-10-14T11:51:12.566Z,22.30
2022-10-14T11:53:58.999Z,22.05
2022-10-14T11:56:42.824Z,22.90
2022-10-14T11:59:35.024Z,23.08
2022-10-14T12:02:26.929Z,23.55
2022-10-14T12:05:05.916Z,23.45
2022-10-14T12:07:45.174Z,24.55
2022-10-14T12:10:42.319Z,22.88
2022-10-14T12:13:15.736Z,22.40
2022-10-14T12:15:49.110Z,22.13
2022-10-14T12:18:19.382Z,23.00
2022-10-14T12:21:19.782Z,22.58
2022-10-14T12:23:55.573Z,22.33
2022-10-14T12:27:04.809Z,22.27
2022-10-14T12:29:46.275Z,21.92
2022-10-14T12:32:27.521Z,22.00
2022-10-14T12:34:55.455Z,22.02
2022-10-14T12:37:31.346Z,21.27
2022-10-14T12:40:07.136Z,22.38
2022-10-14T12:42:58.871Z,22.88
2022-10-14T12:45:28.084Z,22.35
2022-10-14T12:48:12.678Z,21.85
2022-10-14T12:50:42.525Z,22.73
2022-10-14T12:53:29.442Z,22.17
2022-10-14T12:55:59.360Z,22.98
2022-10-14T12:58:55.255Z,22.17
2022-10-14T13:01:22.246Z,23.17
2022-10-14T13:06:37.584Z,23.42
2022-10-14T13:09:14.014Z,23.10
2022-10-14T13:11:43.112Z,23.20
2022-10-14T13:14:27.175Z,20.85
2022-10-14T13:16:56.189Z,22.63
2022-10-14T13:19:35.097Z,24.20
2022-10-14T13:22:03.946Z,23.65
2022-10-14T13:24:38.511Z,24.02
2022-10-14T13:27:52.634Z,25.88
2022-10-14T13:30:38.530Z,24.55
2022-10-14T13:33:39.321Z,25.15
2022-10-14T13:36:18.400Z,25.85
2022-10-14T13:38:59.311Z,23.80
2022-10-14T13:41:29.811Z,23.90
2022-10-14T13:44:00.023Z,23.90
2022-10-14T13:46:42.343Z,24.30
2022-10-14T13:51:59.818Z,25.15
2022-10-14T13:54:28.537Z,25.23
2022-10-14T14:02:49.069Z,26.58
2022-10-14T14:05:26.299Z,26.83
2022-10-14T14:11:03.670Z,25.60
2022-10-14T14:13:32.341Z,25.75
2022-10-14T14:15:59.337Z,25.92
2022-10-14T14:18:43.315Z,26.33
2022-10-14T14:21:23.339Z,25.80
2022-10-14T14:23:56.557Z,25.20
2022-10-14T14:26:40.029Z,27.30
2022-10-14T14:29:15.984Z,26.05
2022-10-14T14:34:31.783Z,27.15
2022-10-14T14:37:11.044Z,25.92
2022-10-14T14:40:02.930Z,24.30
2022-10-14T14:42:36.587Z,24.67
2022-10-14T14:45:18.131Z,25.58
2022-10-14T14:47:48.405Z,25.45
2022-10-14T14:50:33.741Z,24.98
2022-10-14T14:53:04.159Z,25.90
2022-10-14T14:56:00.559Z,25.75
2022-10-14T14:58:43.015Z,25.60
2022-10-14T15:01:26.347Z,26.05
2022-10-14T15:04:12.925Z,25.83
2022-10-14T15:06:51.189Z,25.13
2022-10-14T15:09:30.394Z,25.73
2022-10-14T15:11:58.003Z,26.70
2022-10-14T15:14:49.255Z,26.30
2022-10-14T15:17:46.303Z,25.75
2022-10-14T15:20:38.310Z,24.55
2022-10-14T15:23:39.153Z,25.50
2022-10-14T15:26:24.024Z,25.95
2022-10-14T15:29:10.486Z,26.05
2022-10-14T15:31:39.361Z,23.95
2022-10-14T15:34:22.795Z,25.90
2022-10-14T15:36:51.288Z,26.08
2022-10-14T15:39:19.440Z,26.60
2022-10-14T15:41:47.424Z,27.17
2022-10-14T15:44:14.837Z,27.67
2022-10-14T15:47:02.902Z,28.17
2022-10-14T15:49:34.261Z,27.15
2022-10-14T15:52:01.271Z,27.75
2022-10-14T15:54:28.441Z,29.05
2022-10-14T15:59:28.402Z,30.83
2022-10-14T16:01:55.406Z,30.65
2022-10-14T16:04:24.936Z,33.25
2022-10-14T16:06:55.543Z,32.50
2022-10-14T16:09:24.848Z,33.05
2022-10-14T16:11:57.374Z,32.80
2022-10-14T16:14:27.098Z,33.72
2022-10-14T16:16:54.702Z,33.72
2022-10-14T16:19:21.875Z,35.30
2022-10-14T16:21:50.432Z,35.45
2022-10-14T16:24:20.340Z,35.55
2022-10-14T16:26:51.538Z,34.17
2022-10-14T16:29:20.380Z,34.42
2022-10-14T16:31:49.810Z,38.67
2022-10-14T16:34:22.697Z,37.15
2022-10-14T16:36:50.969Z,36.63
2022-10-14T16:39:19.638Z,36.38
2022-10-14T16:41:46.850Z,38.03
2022-10-14T16:44:24.854Z,37.00
2022-10-14T16:47:14.761Z,37.10
2022-10-14T16:49:44.274Z,37.58
2022-10-14T16:52:11.765Z,36.42
2022-10-14T16:54:38.646Z,38.72
2022-10-14T16:57:06.431Z,39.20
2022-10-14T16:59:33.563Z,39.83
2022-10-14T17:02:01.491Z,39.95
2022-10-14T17:04:28.547Z,40.05
2022-10-14T17:06:58.421Z,40.50
2022-10-14T17:12:02.244Z,38.88
2022-10-14T17:14:31.198Z,39.58
2022-10-14T17:16:59.848Z,38.10
2022-10-14T17:19:27.359Z,36.60
2022-10-14T17:21:54.362Z,36.08
2022-10-14T17:24:22.219Z,34.90
2022-10-14T17:26:49.369Z,35.72
2022-10-14T17:29:16.436Z,33.42
2022-10-14T17:31:45.306Z,35.90
2022-10-14T17:34:12.804Z,34.63
2022-10-14T17:36:41.488Z,33.20
2022-10-14T17:39:18.673Z,34.03
2022-10-14T17:41:51.278Z,34.70
2022-10-14T17:44:18.435Z,33.25
2022-10-14T17:46:45.590Z,34.45
2022-10-14T17:49:13.167Z,32.65
2022-10-14T17:51:40.247Z,34.60
2022-10-14T17:54:10.406Z,34.33
2022-10-14T17:56:39.317Z,34.70
2022-10-14T17:59:08.493Z,35.00
2022-10-14T18:02:02.279Z,34.47
2022-10-14T18:04:22.975Z,34.47
2022-10-14T18:06:50.013Z,33.33
2022-10-14T18:09:16.916Z,34.85
2022-10-14T18:14:34.573Z,36.42
2022-10-14T18:17:01.688Z,36.67
2022-10-14T18:19:28.769Z,36.13
2022-10-14T18:21:56.162Z,35.17
2022-10-14T18:24:23.605Z,38.45
2022-10-14T18:26:53.786Z,36.70
2022-10-14T18:29:20.970Z,37.65
2022-10-14T18:34:24.904Z,37.10
2022-10-14T18:36:51.816Z,37.72
2022-10-14T18:39:20.322Z,37.28
2022-10-14T18:41:47.532Z,36.72
2022-10-14T18:44:15.256Z,36.63
2022-10-14T18:46:42.412Z,35.67
2022-10-14T18:49:11.465Z,35.60
2022-10-14T18:51:40.229Z,37.25
2022-10-14T18:54:18.697Z,36.85
2022-10-14T18:56:46.402Z,36.17
2022-10-14T18:59:18.147Z,36.30
2022-10-14T19:01:46.443Z,36.78
2022-10-14T19:04:15.143Z,43.53
2022-10-14T19:06:48.846Z,39.30
2022-10-14T19:09:17.494Z,38.17
2022-10-14T19:11:44.760Z,35.55
2022-10-14T19:14:14.324Z,36.25
2022-10-14T19:16:41.986Z,36.00
2022-10-14T19:19:14.296Z,35.70
2022-10-14T19:21:41.393Z,34.83
2022-10-14T19:24:08.437Z,33.92
2022-10-14T19:26:38.174Z,35.13
2022-10-14T19:29:11.458Z,34.47
2022-10-14T19:31:40.655Z,32.15
2022-10-14T19:34:11.882Z,31.40
2022-10-14T19:36:40.573Z,33.78
2022-10-14T19:39:10.213Z,33.42
2022-10-14T19:41:44.367Z,32.95
2022-10-14T19:44:12.698Z,29.67
2022-10-14T19:46:41.602Z,30.65
2022-10-14T19:49:11.229Z,30.52
2022-10-14T19:51:38.890Z,30.77
2022-10-14T19:54:06.023Z,30.13
2022-10-14T19:56:33.219Z,27.77
2022-10-14T19:59:01.814Z,29.23
2022-10-14T20:01:30.521Z,30.42
2022-10-14T20:04:01.763Z,31.33
2022-10-14T20:06:33.895Z,31.63
2022-10-14T20:09:01.524Z,32.80
2022-10-14T20:11:28.856Z,33.38
2022-10-14T20:13:56.069Z,33.15
2022-10-14T20:16:23.302Z,32.70
2022-10-14T20:18:50.400Z,33.40
2022-10-14T20:21:17.706Z,32.22
2022-10-14T20:23:44.935Z,32.70
2022-10-14T20:26:17.414Z,29.80
2022-10-14T20:28:44.691Z,30.40
2022-10-14T20:31:14.843Z,30.58
2022-10-14T20:33:43.645Z,29.48
2022-10-14T20:36:14.326Z,32.45
2022-10-14T20:38:42.987Z,30.63
2022-10-14T20:41:15.629Z,32.70
2022-10-14T20:43:43.348Z,31.77
2022-10-14T20:46:10.408Z,33.38
2022-10-14T20:48:39.031Z,33.30
2022-10-14T20:51:12.379Z,32.92
2022-10-14T20:56:11.204Z,33.60
2022-10-14T20:58:38.546Z,34.50
2022-10-14T21:01:05.503Z,36.33
2022-10-14T21:03:32.811Z,35.85
2022-10-14T21:06:06.252Z,34.22
2022-10-14T21:08:33.522Z,35.45
2022-10-14T21:11:14.786Z,35.22
2022-10-14T21:13:44.571Z,35.45
2022-10-14T21:16:23.929Z,34.58
2022-10-14T21:18:57.476Z,35.63
2022-10-14T21:21:27.035Z,34.08
2022-10-14T21:23:54.737Z,34.45
2022-10-14T21:26:21.734Z,34.10
2022-10-14T21:28:48.851Z,35.25
2022-10-14T21:31:19.106Z,35.53
2022-10-14T21:33:55.780Z,34.58
2022-10-14T21:36:22.782Z,36.00
2022-10-14T21:38:49.723Z,35.58
2022-10-14T21:41:16.731Z,36.63
2022-10-14T21:43:43.586Z,36.35
2022-10-14T21:46:13.263Z,35.72
2022-10-14T21:48:41.494Z,36.25
2022-10-14T21:51:14.474Z,36.35
2022-10-14T21:53:42.667Z,35.42
2022-10-14T21:56:10.599Z,35.45
2022-10-14T21:58:38.023Z,36.08
2022-10-14T22:01:08.113Z,35.65
2022-10-14T22:03:36.425Z,36.00
2022-10-14T22:08:36.105Z,35.88
2022-10-14T22:11:04.006Z,35.47
2022-10-14T22:13:31.773Z,35.58
2022-10-14T22:15:58.728Z,34.35
2022-10-14T22:18:25.690Z,34.22
2022-10-14T22:21:03.804Z,33.28
2022-10-14T22:23:31.963Z,34.35
2022-10-14T22:26:04.547Z,33.70
2022-10-14T22:28:31.856Z,33.67
2022-10-14T22:31:20.343Z,33.92
2022-10-14T22:33:48.141Z,30.95
2022-10-14T22:36:23.794Z,32.00
2022-10-14T22:38:52.930Z,31.20
2022-10-14T22:41:21.713Z,31.83
2022-10-14T22:43:50.459Z,33.95
2022-10-14T22:46:21.398Z,31.90
2022-10-14T22:48:49.242Z,31.98
2022-10-14T22:51:19.038Z,34.83
2022-10-14T22:53:46.834Z,33.67
2022-10-14T22:56:16.768Z,28.35
2022-10-14T22:58:44.375Z,26.55
2022-10-14T23:01:14.111Z,25.75
2022-10-14T23:03:41.655Z,25.92
2022-10-14T23:06:11.930Z,26.35
2022-10-14T23:08:39.349Z,26.77
2022-10-14T23:11:07.225Z,25.38
2022-10-14T23:13:34.608Z,27.65
2022-10-14T23:16:04.124Z,31.73
2022-10-14T23:18:34.445Z,29.00
2022-10-14T23:21:29.646Z,27.08
2022-10-14T23:23:59.645Z,28.27
2022-10-14T23:26:31.584Z,26.48
2022-10-14T23:29:00.074Z,31.20
2022-10-14T23:31:30.282Z,26.50
2022-10-14T23:34:01.741Z,28.25
2022-10-14T23:36:28.917Z,25.42
2022-10-14T23:38:55.889Z,24.30
2022-10-14T23:41:23.680Z,24.92
2022-10-14T23:43:52.151Z,25.55
2022-10-14T23:46:19.956Z,28.10
2022-10-14T23:48:55.472Z,25.63
2022-10-14T23:51:34.452Z,27.45
2022-10-14T23:54:01.582Z,29.27
2022-10-14T23:56:28.612Z,28.88
2022-10-14T23:58:55.537Z,30.52
